首页
METAR-TAF:

METAR-TAF

机场 :

哈立德国王国际机场

利雅德, 沙特阿拉伯

纬度: 24-56N, 经度: 046-43E, 海拔: 614米

当前天气观测

该预报发布于37分钟前的12:00 UTC
风速11节,风向
温度 42°C
湿度 11%
气压 1008 hPa
能见度10公里或以上
1500米以下无云,无积雨云

METAR: OERK 191200Z 01011KT CAVOK 42/05 Q1008 NOSIG

时间: 15:37 (12:37 UTC)

预报

该预报发布于1小时和37分钟前的11:00 UTC
预报有效从19日的 12点(UTC)到 20日的 18点(UTC)
风速15节,风向
能見度: 7000
短暂存在
从 19日的 12点(UTC)到 19日的 18点(UTC)
能見度: 4000
高吹尘
成为
从 19日的 18点(UTC)到 19日的 20点(UTC)
风速6节,风向

TAF: OERK 191100Z 1912/2018 36015KT 7000 NSC TEMPO 1912/1918 4000 BLDU BECMG 1918/1920 09006KT

超过4000个机场的气象观测和天气预报(METAR&TAF报告)。

可查询的气象台以黄色和红色小点在地图上表示。

将鼠标移到小点上方,可查看气象台名称。

然后点击查看天气观测和预报。

如需切换地图:点击带黑十字的绿色按钮放大地图;点击带横线的绿色按钮缩小地图;或者点击绿色箭头查看邻近地区的地图。


METAR-TAF: